Time;durP1;ratioP1;P1;durP2;ratioP2;P2;SDS_P1;SDS_P2;PMS_P1;PMS_P2;Temp;Humidity;BMP_temperature;BMP_pressure;BME280_temperature;BME280_humidity;BME280_pressure;Samples;Min_cycle;Max_cycle;Signal;HPM_P1;HPM_P2
2021/12/16 00:01:46;;;;;;;42.30;26.98;;;;;;;11.73;47.91;100477.41;4329848;33;34855;-87
2021/12/16 00:10:40;;;;;;;40.22;26.83;;;;;;;11.67;48.19;100472.94;4316723;33;34570;-87
2021/12/16 00:32:29;;;;;;;36.35;23.62;;;;;;;12.02;46.57;100470.50;4297947;33;33719;-87
2021/12/16 00:34:57;;;;;;;37.60;22.17;;;;;;;12.18;45.36;100473.53;4319460;33;35007;-88
2021/12/16 00:37:26;;;;;;;32.50;21.80;;;;;;;12.52;43.89;100474.44;4316351;33;33647;-88
2021/12/16 00:39:53;;;;;;;29.77;20.17;;;;;;;12.75;43.31;100476.75;4316221;33;33714;-87
2021/12/16 00:47:56;;;;;;;32.35;21.12;;;;;;;12.36;43.81;100475.75;4316834;33;33964;-88
2021/12/16 00:55:51;;;;;;;31.50;20.40;;;;;;;12.73;42.29;100478.41;4318401;33;34152;-85
2021/12/16 00:58:23;;;;;;;36.03;22.30;;;;;;;12.43;41.92;100484.63;4315906;33;33416;-84
2021/12/16 01:01:00;;;;;;;38.47;23.87;;;;;;;11.99;43.33;100473.00;4316735;33;34789;-84
2021/12/16 01:03:58;;;;;;;33.60;23.25;;;;;;;11.40;46.73;100488.56;4328517;33;34924;-85
2021/12/16 01:09:33;;;;;;;44.03;28.00;;;;;;;11.99;44.64;100468.69;4330615;33;33201;-85
2021/12/16 01:34:40;;;;;;;37.50;25.12;;;;;;;11.59;46.40;100472.72;4319593;33;34708;-87
2021/12/16 01:45:48;;;;;;;37.65;24.37;;;;;;;11.74;45.04;100458.38;4320296;33;33683;-86
2021/12/16 01:51:16;;;;;;;38.95;25.27;;;;;;;11.86;46.70;100449.28;4329127;33;33916;-87
2021/12/16 01:59:03;;;;;;;43.97;27.10;;;;;;;11.60;47.76;100452.81;4331061;33;33774;-84
2021/12/16 02:01:33;;;;;;;37.90;25.27;;;;;;;11.22;48.56;100455.16;4330436;33;34048;-84
2021/12/16 02:04:27;;;;;;;34.80;23.75;;;;;;;11.69;47.96;100448.75;4330894;33;33621;-86
2021/12/16 02:07:21;;;;;;;38.67;24.87;;;;;;;11.87;46.41;100440.63;4330644;33;34005;-84
2021/12/16 02:09:48;;;;;;;34.67;22.55;;;;;;;11.32;47.85;100448.50;4330765;33;34706;-84
2021/12/16 02:12:43;;;;;;;37.28;23.77;;;;;;;11.92;45.95;100432.97;4330415;33;34245;-87
2021/12/16 02:36:42;;;;;;;39.88;26.42;;;;;;;11.38;47.54;100430.53;4330775;33;33673;-88
2021/12/16 02:39:19;;;;;;;42.65;26.92;;;;;;;11.53;47.68;100428.38;4318230;33;34235;-87
2021/12/16 02:41:51;;;;;;;35.35;22.15;;;;;;;11.51;48.44;100432.63;4330318;33;33490;-87
2021/12/16 02:44:33;;;;;;;40.08;24.45;;;;;;;11.79;46.39;100421.31;4317662;33;33901;-87
2021/12/16 02:49:51;;;;;;;35.97;22.48;;;;;;;12.04;46.26;100429.81;4330152;33;33796;-87
2021/12/16 02:52:22;;;;;;;45.20;25.65;;;;;;;11.81;46.37;100418.75;4330585;33;34101;-87
2021/12/16 02:54:50;;;;;;;46.10;26.67;;;;;;;10.67;50.12;100420.53;4317144;33;35454;-89
2021/12/16 02:57:18;;;;;;;46.13;27.75;;;;;;;11.42;48.73;100430.66;4330966;33;33843;-89
2021/12/16 02:59:46;;;;;;;46.60;28.40;;;;;;;10.85;51.04;100429.75;4316576;33;34894;-88
2021/12/16 03:02:16;;;;;;;47.78;27.67;;;;;;;11.16;50.08;100422.06;4330830;33;35078;-88
2021/12/16 03:04:48;;;;;;;48.15;28.27;;;;;;;10.46;51.98;100428.50;4330379;33;33946;-88
2021/12/16 03:07:17;;;;;;;50.28;30.35;;;;;;;11.00;50.84;100424.16;4330518;33;33835;-88
2021/12/16 03:12:48;;;;;;;50.63;30.27;;;;;;;10.78;51.34;100407.91;4330633;33;33748;-87
2021/12/16 03:15:40;;;;;;;55.42;33.08;;;;;;;10.51;52.87;100405.31;4318495;33;34044;-88
2021/12/16 03:20:53;;;;;;;53.78;31.20;;;;;;;11.16;51.27;100396.13;4328894;33;33588;-87
2021/12/16 03:23:35;;;;;;;54.03;32.65;;;;;;;10.82;52.22;100409.78;4317129;33;33793;-87
2021/12/16 03:31:55;;;;;;;51.45;31.73;;;;;;;10.01;54.80;100407.06;4330523;33;34128;-87
2021/12/16 03:39:46;;;;;;;55.95;34.95;;;;;;;9.50;57.13;100414.72;4330121;33;33827;-86
2021/12/16 03:42:19;;;;;;;59.70;35.28;;;;;;;9.67;56.33;100413.63;4317313;33;33361;-86
2021/12/16 03:44:52;;;;;;;57.80;35.42;;;;;;;9.88;55.31;100412.63;4317064;33;33267;-87
2021/12/16 03:47:49;;;;;;;61.50;37.13;;;;;;;9.48;57.05;100411.19;4318332;33;33726;-87
2021/12/16 03:50:19;;;;;;;59.40;36.22;;;;;;;9.30;57.98;100413.09;4327839;33;33978;-87
2021/12/16 03:52:49;;;;;;;57.38;34.97;;;;;;;8.40;60.56;100420.72;4330679;33;34456;-87
2021/12/16 03:55:17;;;;;;;59.75;36.80;;;;;;;9.66;56.71;100410.97;4330224;33;33924;-87
2021/12/16 03:57:45;;;;;;;70.87;39.28;;;;;;;9.12;58.46;100416.72;4330187;33;33816;-87
2021/12/16 04:00:19;;;;;;;64.28;37.38;;;;;;;9.00;59.17;100418.84;4330060;33;32965;-87
2021/12/16 04:02:47;;;;;;;57.83;35.53;;;;;;;9.21;57.74;100417.09;4330255;33;33725;-88
2021/12/16 04:05:17;;;;;;;63.25;37.50;;;;;;;9.32;57.51;100414.00;4329862;33;35266;-88
2021/12/16 04:07:45;;;;;;;59.80;37.30;;;;;;;8.41;60.57;100420.81;4317198;33;33163;-87
2021/12/16 04:10:37;;;;;;;57.30;35.20;;;;;;;9.35;58.20;100420.19;4330254;33;34116;-87
2021/12/16 04:13:07;;;;;;;57.28;35.20;;;;;;;9.33;57.90;100415.81;4316878;33;32315;-87
2021/12/16 04:15:36;;;;;;;54.15;34.33;;;;;;;9.59;56.79;100414.19;4329430;33;34768;-86
2021/12/16 04:18:03;;;;;;;61.25;36.67;;;;;;;10.15;55.92;100418.78;4330018;33;34095;-85
2021/12/16 04:20:32;;;;;;;61.05;35.92;;;;;;;8.79;59.54;100413.72;4330198;33;33893;-85
2021/12/16 04:23:00;;;;;;;58.20;34.47;;;;;;;9.36;57.88;100410.75;4329697;33;33948;-84
2021/12/16 04:25:35;;;;;;;53.30;31.80;;;;;;;10.11;55.68;100409.13;4330418;33;33849;-85
2021/12/16 04:28:07;;;;;;;53.60;32.97;;;;;;;10.83;53.11;100405.47;4329999;33;34025;-85
2021/12/16 04:30:34;;;;;;;55.70;32.63;;;;;;;10.79;52.86;100408.78;4329882;33;33706;-84
2021/12/16 04:33:03;;;;;;;55.90;32.03;;;;;;;10.62;53.41;100406.56;4329392;33;33849;-85
2021/12/16 04:35:32;;;;;;;55.58;32.35;;;;;;;10.74;52.69;100410.37;4329675;33;34055;-84
2021/12/16 04:38:00;;;;;;;55.67;33.60;;;;;;;10.73;53.09;100411.22;4316762;33;34180;-84
2021/12/16 04:40:29;;;;;;;54.67;32.65;;;;;;;10.73;52.70;100413.81;4329765;33;33528;-84
2021/12/16 04:43:02;;;;;;;54.85;31.20;;;;;;;11.68;50.12;100404.56;4315676;33;33432;-84
2021/12/16 04:45:31;;;;;;;51.05;31.40;;;;;;;11.14;51.36;100408.19;4331926;33;33336;-85
2021/12/16 04:47:59;;;;;;;50.35;30.62;;;;;;;10.46;53.08;100419.84;4331886;33;34810;-84
2021/12/16 04:50:29;;;;;;;53.35;32.58;;;;;;;11.04;51.50;100407.84;4331632;33;33305;-85
2021/12/16 04:52:57;;;;;;;57.35;32.92;;;;;;;10.63;52.22;100405.72;4331386;33;33149;-85
2021/12/16 04:55:24;;;;;;;55.58;33.42;;;;;;;10.98;52.08;100411.13;4331965;33;33602;-85
2021/12/16 04:57:52;;;;;;;55.20;31.12;;;;;;;10.58;52.82;100407.28;4331673;33;35121;-84
2021/12/16 05:00:23;;;;;;;49.95;30.73;;;;;;;10.93;51.62;100403.22;4318037;33;34284;-84
2021/12/16 05:02:52;;;;;;;49.75;31.08;;;;;;;11.24;50.60;100385.97;4318193;33;32250;-84
2021/12/16 05:05:21;;;;;;;45.75;26.77;;;;;;;11.37;50.26;100398.50;4331244;33;35129;-85
2021/12/16 05:07:49;;;;;;;40.78;25.05;;;;;;;11.78;49.17;100398.78;4318543;33;35597;-85
2021/12/16 05:10:19;;;;;;;39.30;24.02;;;;;;;12.21;47.42;100396.47;4331020;33;33339;-86
2021/12/16 05:12:53;;;;;;;38.65;22.92;;;;;;;12.67;46.33;100388.09;4318240;33;34075;-87
2021/12/16 05:15:28;;;;;;;38.00;23.25;;;;;;;13.07;44.83;100387.28;4317770;33;33938;-86
2021/12/16 05:18:00;;;;;;;34.90;21.57;;;;;;;13.19;44.00;100385.81;4329441;33;36157;-86
2021/12/16 05:20:32;;;;;;;36.47;21.27;;;;;;;13.02;44.06;100385.41;4317270;33;34065;-85
2021/12/16 05:28:18;;;;;;;40.88;22.35;;;;;;;12.80;43.24;100394.44;4316410;33;33375;-85
2021/12/16 05:30:45;;;;;;;41.53;23.15;;;;;;;12.45;44.60;100388.41;4330479;33;34713;-86
2021/12/16 05:33:14;;;;;;;39.92;21.73;;;;;;;12.76;44.16;100396.09;4331139;33;33871;-86
2021/12/16 05:35:48;;;;;;;36.28;20.55;;;;;;;12.85;43.74;100405.88;4331113;33;34066;-85
2021/12/16 05:38:16;;;;;;;34.97;20.73;;;;;;;12.58;44.18;100398.28;4331446;33;34370;-86
2021/12/16 05:40:44;;;;;;;41.55;23.83;;;;;;;12.82;43.55;100400.59;4317815;33;33312;-85
2021/12/16 05:43:15;;;;;;;39.72;22.58;;;;;;;12.97;43.23;100395.72;4329974;33;33171;-86
2021/12/16 05:45:44;;;;;;;49.80;27.75;;;;;;;12.72;43.75;100412.47;4316492;33;33778;-86
2021/12/16 05:48:15;;;;;;;45.15;24.90;;;;;;;12.74;44.13;100415.12;4316831;33;35032;-85
2021/12/16 05:50:47;;;;;;;45.45;25.62;;;;;;;12.68;44.91;100414.97;4330741;33;33225;-86
2021/12/16 05:53:15;;;;;;;41.50;24.35;;;;;;;12.22;46.13;100422.50;4317192;33;33476;-85
2021/12/16 05:55:43;;;;;;;42.03;24.27;;;;;;;11.95;46.77;100422.66;4317712;33;35652;-85
2021/12/16 05:58:15;;;;;;;47.80;26.60;;;;;;;11.61;48.63;100416.47;4316392;33;32994;-85
2021/12/16 06:00:46;;;;;;;49.67;27.35;;;;;;;11.24;50.15;100429.22;4317461;33;34149;-86
2021/12/16 06:03:14;;;;;;;50.28;30.20;;;;;;;11.20;50.90;100429.12;4331547;33;33946;-85
2021/12/16 06:05:42;;;;;;;53.33;29.02;;;;;;;11.21;50.73;100424.81;4331335;33;34788;-87
2021/12/16 06:08:09;;;;;;;49.58;28.10;;;;;;;10.94;51.32;100430.03;4318270;33;34308;-88
2021/12/16 06:13:29;;;;;;;53.10;30.58;;;;;;;10.35;53.39;100429.87;4330764;33;34781;-87
2021/12/16 06:26:58;;;;;;;54.20;31.77;;;;;;;10.91;51.98;100429.94;4330550;33;33713;-87
2021/12/16 06:29:26;;;;;;;57.58;31.92;;;;;;;10.15;54.72;100429.16;4318570;33;34413;-86
2021/12/16 06:31:55;;;;;;;55.92;33.70;;;;;;;10.64;52.89;100436.00;4331056;33;33851;-87
2021/12/16 06:34:23;;;;;;;55.05;31.52;;;;;;;10.11;54.63;100429.84;4305877;33;33474;-86
2021/12/16 06:36:51;;;;;;;52.88;30.83;;;;;;;10.56;53.39;100434.88;4317992;33;34120;-85
2021/12/16 06:39:19;;;;;;;55.40;32.83;;;;;;;10.82;52.64;100429.66;4330932;33;34796;-84
2021/12/16 06:41:59;;;;;;;64.95;35.45;;;;;;;11.35;50.83;100425.22;4330361;33;34616;-83
2021/12/16 06:44:29;;;;;;;60.83;34.13;;;;;;;9.46;56.75;100439.59;4331277;33;33345;-85
2021/12/16 06:47:03;;;;;;;61.58;34.67;;;;;;;10.33;54.23;100443.59;4317848;33;33685;-84
2021/12/16 06:49:33;;;;;;;52.73;32.23;;;;;;;10.75;52.75;100432.88;4318548;33;33798;-84
2021/12/16 06:52:04;;;;;;;55.35;32.53;;;;;;;10.47;53.01;100438.03;4330966;33;33853;-84
2021/12/16 07:00:16;;;;;;;57.62;34.30;;;;;;;10.29;54.07;100454.69;4317410;33;34150;-86
2021/12/16 07:03:03;;;;;;;56.08;32.55;;;;;;;10.16;54.42;100449.06;4318792;33;33643;-85
2021/12/16 07:05:35;;;;;;;58.20;33.42;;;;;;;10.67;53.19;100461.16;4318953;33;34902;-84
2021/12/16 07:08:05;;;;;;;55.12;31.90;;;;;;;10.57;53.82;100452.22;4330907;33;34056;-85
2021/12/16 07:10:33;;;;;;;62.15;34.85;;;;;;;9.38;57.15;100463.44;4330703;33;34847;-86
2021/12/16 07:13:07;;;;;;;65.03;36.20;;;;;;;10.00;55.21;100449.34;4330904;33;33730;-85
2021/12/16 07:15:37;;;;;;;58.33;33.25;;;;;;;9.98;55.36;100457.03;4331307;33;33747;-86
2021/12/16 07:18:04;;;;;;;59.75;34.25;;;;;;;9.36;56.88;100462.50;4330846;33;34253;-86
2021/12/16 07:20:34;;;;;;;62.50;35.53;;;;;;;9.61;57.02;100460.00;4317537;33;34255;-86
2021/12/16 07:23:04;;;;;;;57.20;32.63;;;;;;;9.77;56.76;100457.97;4330968;33;33838;-86
2021/12/16 07:25:32;;;;;;;58.95;35.25;;;;;;;10.41;54.63;100453.38;4330826;33;34052;-84
2021/12/16 07:28:03;;;;;;;56.08;32.20;;;;;;;10.39;54.74;100456.78;4317330;33;33116;-83
2021/12/16 07:30:31;;;;;;;55.33;33.92;;;;;;;10.45;54.12;100460.47;4317998;33;35094;-83
2021/12/16 07:32:59;;;;;;;59.20;34.00;;;;;;;9.77;56.31;100460.56;4330157;33;33493;-83
2021/12/16 07:35:27;;;;;;;61.95;34.65;;;;;;;10.31;55.00;100456.50;4330777;33;33940;-85
2021/12/16 07:37:55;;;;;;;59.42;34.30;;;;;;;10.52;54.57;100456.34;4330478;33;33909;-87
2021/12/16 07:40:26;;;;;;;67.78;34.83;;;;;;;10.02;55.92;100452.84;4330047;33;34792;-86
2021/12/16 07:45:43;;;;;;;61.78;34.25;;;;;;;9.31;58.63;100451.97;4317958;33;34623;-85
2021/12/16 07:48:13;;;;;;;59.28;33.35;;;;;;;9.31;58.76;100456.25;4317715;33;33806;-86
2021/12/16 07:50:43;;;;;;;66.35;36.10;;;;;;;9.70;57.24;100449.12;4330739;33;34503;-85
2021/12/16 07:53:10;;;;;;;63.08;36.63;;;;;;;9.31;58.91;100454.53;4330357;33;34349;-85
2021/12/16 07:55:41;;;;;;;60.42;35.92;;;;;;;9.00;59.55;100455.06;4330011;33;33902;-86
2021/12/16 07:58:10;;;;;;;56.53;34.35;;;;;;;9.08;59.65;100450.19;4329568;33;33625;-86
2021/12/16 08:00:38;;;;;;;59.15;34.90;;;;;;;10.06;56.62;100454.72;4330569;33;34134;-86
2021/12/16 08:03:09;;;;;;;60.95;37.13;;;;;;;8.87;60.15;100460.59;4317221;33;34473;-86
2021/12/16 08:05:40;;;;;;;61.53;37.95;;;;;;;9.04;60.00;100456.94;4317007;33;34784;-86
2021/12/16 08:08:08;;;;;;;65.50;36.72;;;;;;;8.75;60.76;100454.09;4317067;33;34306;-86
2021/12/16 08:10:36;;;;;;;60.53;34.55;;;;;;;9.45;58.38;100455.09;4330719;33;35054;-86
2021/12/16 08:13:04;;;;;;;59.55;36.10;;;;;;;9.23;59.89;100462.00;4330348;33;33520;-86
2021/12/16 08:15:32;;;;;;;60.12;33.85;;;;;;;9.74;57.80;100462.22;4330416;33;33988;-86
2021/12/16 08:18:00;;;;;;;60.72;34.08;;;;;;;8.91;60.27;100465.94;4329264;33;34238;-86
2021/12/16 08:20:27;;;;;;;61.50;34.97;;;;;;;9.47;58.54;100466.34;4330239;33;34879;-84
2021/12/16 08:22:56;;;;;;;64.28;35.67;;;;;;;9.46;59.08;100467.19;4330135;33;34183;-84
2021/12/16 08:25:25;;;;;;;60.83;36.13;;;;;;;8.25;62.99;100463.16;4317106;33;34721;-84
2021/12/16 08:27:55;;;;;;;57.58;34.28;;;;;;;9.19;60.22;100470.47;4330204;33;33626;-84
2021/12/16 08:30:27;;;;;;;59.97;35.60;;;;;;;9.41;59.44;100463.56;4317092;33;34963;-84
2021/12/16 08:32:56;;;;;;;58.65;35.28;;;;;;;8.71;61.25;100475.47;4330264;33;33656;-84
2021/12/16 08:35:25;;;;;;;67.62;37.45;;;;;;;9.32;59.82;100466.69;4317286;33;34689;-84
2021/12/16 08:37:52;;;;;;;62.42;37.95;;;;;;;9.47;59.29;100462.09;4330192;33;34335;-85
2021/12/16 08:40:22;;;;;;;63.17;35.28;;;;;;;9.44;59.39;100458.50;4316856;33;34182;-86
2021/12/16 08:42:50;;;;;;;66.50;37.15;;;;;;;9.54;59.50;100463.19;4330190;33;33906;-85
2021/12/16 08:45:23;;;;;;;67.70;37.40;;;;;;;9.35;59.47;100459.00;4330019;33;33957;-84
2021/12/16 08:47:51;;;;;;;62.60;34.58;;;;;;;9.57;59.67;100460.72;4329893;33;34309;-85
2021/12/16 08:50:20;;;;;;;60.53;36.50;;;;;;;9.06;60.63;100469.97;4330275;33;33925;-85
2021/12/16 08:52:48;;;;;;;64.82;36.17;;;;;;;9.42;59.55;100458.44;4329980;33;33761;-85
2021/12/16 08:55:16;;;;;;;63.83;36.35;;;;;;;10.44;57.24;100460.41;4329777;33;33560;-85
2021/12/16 08:57:44;;;;;;;64.10;35.25;;;;;;;9.79;58.97;100456.34;4329882;33;34240;-85
2021/12/16 09:00:17;;;;;;;63.03;35.63;;;;;;;10.62;56.93;100461.00;4329784;33;34908;-85
2021/12/16 09:02:45;;;;;;;55.92;34.85;;;;;;;10.02;58.61;100457.16;4329713;33;34721;-85
2021/12/16 09:05:13;;;;;;;58.70;33.40;;;;;;;10.35;57.35;100458.38;4329668;33;33836;-85
2021/12/16 09:07:45;;;;;;;57.88;33.67;;;;;;;9.13;61.41;100452.16;4329700;33;33685;-85
2021/12/16 09:10:13;;;;;;;59.67;35.35;;;;;;;9.25;61.06;100452.62;4316968;33;35022;-85
2021/12/16 09:12:54;;;;;;;60.78;34.78;;;;;;;8.48;64.78;100455.53;4316587;33;34480;-85
2021/12/16 09:15:24;;;;;;;59.42;33.25;;;;;;;9.79;60.52;100451.16;4317905;33;34730;-86
2021/12/16 09:17:52;;;;;;;59.88;34.15;;;;;;;9.37;61.61;100449.63;4329620;33;34928;-85
2021/12/16 09:20:21;;;;;;;57.30;34.72;;;;;;;9.35;61.90;100455.53;4329403;33;34264;-85
2021/12/16 09:22:49;;;;;;;60.80;36.33;;;;;;;9.77;60.75;100455.38;4329620;33;33812;-85
2021/12/16 09:25:17;;;;;;;61.97;33.92;;;;;;;9.35;62.32;100460.72;4329510;33;33487;-85
2021/12/16 09:27:44;;;;;;;56.92;34.08;;;;;;;9.71;60.92;100462.12;4329304;33;34356;-85
2021/12/16 09:30:16;;;;;;;55.80;32.47;;;;;;;8.87;63.84;100460.59;4317509;33;34217;-85
2021/12/16 09:32:45;;;;;;;58.87;34.90;;;;;;;9.67;60.90;100460.25;4331687;33;33681;-85
2021/12/16 09:35:13;;;;;;;59.30;32.92;;;;;;;8.97;63.44;100466.16;4317996;33;33803;-85
2021/12/16 09:37:40;;;;;;;61.65;32.08;;;;;;;9.24;62.27;100460.31;4331672;33;35256;-86
2021/12/16 09:40:12;;;;;;;56.85;32.80;;;;;;;9.57;60.99;100452.06;4331803;33;34287;-85
2021/12/16 09:42:39;;;;;;;56.10;33.55;;;;;;;10.77;57.39;100446.78;4318109;33;34472;-85
2021/12/16 09:45:08;;;;;;;57.05;31.50;;;;;;;9.55;61.17;100446.84;4329022;33;84082;-85
2021/12/16 09:47:37;;;;;;;57.65;32.08;;;;;;;9.38;61.44;100446.19;4331428;33;34605;-85
2021/12/16 09:50:08;;;;;;;62.28;37.65;;;;;;;8.85;63.42;100449.28;4331367;33;33890;-85
2021/12/16 09:52:35;;;;;;;55.55;32.25;;;;;;;9.92;60.40;100451.63;4331430;33;34662;-85
2021/12/16 09:55:04;;;;;;;59.15;33.33;;;;;;;9.68;60.47;100448.16;4331434;33;34550;-85
2021/12/16 09:57:32;;;;;;;56.10;33.22;;;;;;;9.16;62.48;100451.38;4318519;33;33832;-85
2021/12/16 10:00:01;;;;;;;60.85;33.60;;;;;;;10.08;60.09;100447.03;4331433;33;33824;-85
2021/12/16 10:02:32;;;;;;;57.10;32.20;;;;;;;9.62;60.93;100446.25;4318451;33;33817;-85
2021/12/16 10:05:00;;;;;;;56.08;31.60;;;;;;;9.24;62.36;100453.44;4331465;33;34364;-86
2021/12/16 10:07:33;;;;;;;55.40;33.35;;;;;;;9.87;60.56;100431.59;4331541;33;34897;-85
2021/12/16 10:10:13;;;;;;;62.65;35.38;;;;;;;8.25;65.12;100439.91;4331381;33;33999;-85
2021/12/16 10:12:44;;;;;;;53.30;32.78;;;;;;;8.76;65.01;100435.16;4331405;33;33456;-85
2021/12/16 10:18:21;;;;;;;56.05;31.40;;;;;;;10.12;60.26;100429.03;4319981;33;34478;-85
2021/12/16 10:20:55;;;;;;;50.22;29.60;;;;;;;9.31;62.71;100427.78;4318252;33;33928;-84
2021/12/16 10:23:31;;;;;;;48.45;29.23;;;;;;;9.30;62.12;100419.16;4317696;33;33588;-85
2021/12/16 10:26:06;;;;;;;51.92;31.37;;;;;;;9.80;60.65;100406.28;4331622;33;33907;-85
2021/12/16 10:28:37;;;;;;;46.35;30.70;;;;;;;8.47;65.45;100417.59;4331194;33;34568;-85
2021/12/16 10:31:16;;;;;;;48.70;29.23;;;;;;;9.64;61.37;100403.16;4317759;33;34364;-85
2021/12/16 10:33:48;;;;;;;49.97;28.58;;;;;;;9.79;60.87;100401.94;4331117;33;34460;-85
2021/12/16 10:36:20;;;;;;;51.80;32.33;;;;;;;9.94;60.67;100399.91;4331073;33;34641;-85
2021/12/16 10:38:50;;;;;;;52.83;30.55;;;;;;;9.73;61.07;100403.47;4331330;33;34593;-85
2021/12/16 10:41:31;;;;;;;51.80;28.30;;;;;;;8.63;64.28;100414.78;4330333;33;35080;-84
2021/12/16 10:44:04;;;;;;;43.08;27.48;;;;;;;10.09;59.84;100400.44;4331321;33;34439;-85
2021/12/16 10:46:36;;;;;;;48.30;30.37;;;;;;;9.95;59.86;100401.66;4331102;33;33977;-85
2021/12/16 10:49:07;;;;;;;47.88;28.27;;;;;;;9.75;61.05;100409.59;4331142;33;33699;-85
2021/12/16 10:51:45;;;;;;;45.38;27.58;;;;;;;9.97;60.01;100393.13;4331257;33;34413;-85
2021/12/16 10:54:17;;;;;;;51.65;30.60;;;;;;;9.84;60.14;100405.56;4317788;33;34159;-85
2021/12/16 10:56:48;;;;;;;48.75;28.45;;;;;;;9.07;63.28;100412.22;4331125;33;33521;-86
2021/12/16 10:59:23;;;;;;;50.58;30.95;;;;;;;9.70;61.31;100405.09;4318215;33;34187;-86
2021/12/16 11:02:01;;;;;;;47.00;28.40;;;;;;;8.94;63.66;100410.84;4331079;33;35011;-85
2021/12/16 11:04:40;;;;;;;46.65;29.23;;;;;;;9.16;62.96;100403.09;4331246;33;34194;-85
2021/12/16 11:07:10;;;;;;;47.50;28.38;;;;;;;9.13;63.06;100403.00;4331239;33;33509;-85
2021/12/16 11:09:48;;;;;;;49.88;28.27;;;;;;;9.42;62.31;100405.78;4331114;33;33951;-85
2021/12/16 11:12:15;;;;;;;42.62;27.35;;;;;;;9.84;60.92;100410.75;4331065;33;33827;-85
2021/12/16 11:14:53;;;;;;;47.83;27.35;;;;;;;9.02;63.17;100414.62;4331142;33;33721;-85
2021/12/16 11:17:23;;;;;;;47.85;28.50;;;;;;;9.73;61.17;100397.41;4330643;33;34831;-85
2021/12/16 11:20:13;;;;;;;48.22;29.85;;;;;;;9.72;61.62;100400.84;4317497;33;34134;-85
2021/12/16 11:22:46;;;;;;;45.50;27.25;;;;;;;9.79;61.71;100392.47;4323476;33;33825;-85
2021/12/16 11:25:19;;;;;;;51.17;30.37;;;;;;;9.72;61.87;100399.13;4330973;33;33685;-85
2021/12/16 11:27:54;;;;;;;45.92;29.17;;;;;;;10.86;57.96;100395.19;4330809;33;33980;-85
2021/12/16 11:30:34;;;;;;;40.80;25.70;;;;;;;10.51;59.23;100391.47;4330891;33;34944;-85
2021/12/16 11:33:09;;;;;;;41.13;27.13;;;;;;;11.44;56.46;100378.78;4317554;33;34068;-85
2021/12/16 11:35:41;;;;;;;40.63;25.98;;;;;;;10.58;58.17;100383.94;4331112;33;33328;-85
2021/12/16 11:38:16;;;;;;;41.25;26.10;;;;;;;10.16;60.22;100384.25;4330896;33;33878;-85
2021/12/16 11:40:53;;;;;;;42.03;27.60;;;;;;;10.10;60.52;100386.63;4330813;33;34655;-84
2021/12/16 11:43:34;;;;;;;40.15;26.23;;;;;;;10.31;59.75;100383.94;4330846;33;33678;-84
2021/12/16 11:46:03;;;;;;;38.95;24.70;;;;;;;11.04;57.66;100379.31;4330688;33;33798;-84
2021/12/16 11:48:37;;;;;;;39.70;25.10;;;;;;;10.64;58.90;100383.25;4330816;33;33835;-85
2021/12/16 11:51:34;;;;;;;40.97;25.15;;;;;;;10.46;59.30;100383.56;4330645;33;34210;-85
2021/12/16 11:54:11;;;;;;;41.00;24.98;;;;;;;11.09;57.39;100370.81;4325556;33;33965;-85
2021/12/16 11:56:41;;;;;;;41.00;26.92;;;;;;;9.75;61.22;100381.12;4330996;33;33510;-85
2021/12/16 11:59:10;;;;;;;39.47;26.10;;;;;;;9.61;61.86;100378.84;4330365;33;33950;-85
2021/12/16 12:01:40;;;;;;;43.30;27.17;;;;;;;10.68;58.46;100374.72;4330415;33;34167;-85
2021/12/16 12:04:09;;;;;;;38.63;24.50;;;;;;;10.11;60.34;100362.47;4330755;33;35042;-85
2021/12/16 12:06:38;;;;;;;46.78;26.90;;;;;;;10.81;58.27;100353.53;4330409;33;33804;-85
2021/12/16 12:09:07;;;;;;;41.13;24.77;;;;;;;10.38;59.90;100364.25;4317273;33;34042;-85
2021/12/16 12:11:40;;;;;;;39.97;24.95;;;;;;;9.80;61.95;100365.72;4317384;33;33759;-85
2021/12/16 12:14:17;;;;;;;40.70;24.40;;;;;;;10.04;60.63;100363.13;4330160;33;34167;-84
2021/12/16 12:16:49;;;;;;;40.63;24.35;;;;;;;9.75;61.78;100365.59;4330730;33;34638;-85
2021/12/16 12:19:20;;;;;;;35.85;23.15;;;;;;;10.38;59.78;100374.62;4330357;33;34416;-85
2021/12/16 12:21:54;;;;;;;40.05;23.40;;;;;;;10.26;59.57;100364.75;4330417;33;35200;-85
2021/12/16 12:24:26;;;;;;;37.47;23.98;;;;;;;11.00;57.81;100362.78;4317384;33;33851;-85
2021/12/16 12:26:57;;;;;;;34.25;23.30;;;;;;;10.06;60.86;100366.63;4330310;33;33490;-85
2021/12/16 12:29:42;;;;;;;37.08;23.83;;;;;;;10.10;60.69;100371.09;4316986;33;34870;-84
2021/12/16 12:32:14;;;;;;;35.53;23.80;;;;;;;10.75;59.00;100357.66;4330235;33;33489;-85
2021/12/16 12:34:44;;;;;;;37.00;23.35;;;;;;;10.82;58.22;100359.59;4317064;33;33459;-85
2021/12/16 12:37:14;;;;;;;34.72;24.20;;;;;;;11.44;56.45;100353.69;4316863;33;33166;-85
2021/12/16 12:39:46;;;;;;;37.65;23.83;;;;;;;11.16;57.40;100364.09;4330589;33;34421;-85
2021/12/16 12:42:15;;;;;;;39.00;23.92;;;;;;;10.05;60.30;100359.69;4316871;33;34871;-85
2021/12/16 12:44:43;;;;;;;36.42;23.73;;;;;;;11.20;57.16;100351.25;4329735;33;33452;-85
2021/12/16 12:47:13;;;;;;;34.70;23.52;;;;;;;10.47;58.95;100349.00;4330296;33;34154;-85
2021/12/16 12:49:42;;;;;;;37.47;23.25;;;;;;;10.29;59.04;100348.41;4316739;33;34740;-85
2021/12/16 12:52:13;;;;;;;32.85;20.10;;;;;;;10.30;59.52;100355.34;4329914;33;33893;-85
2021/12/16 12:54:45;;;;;;;32.85;22.20;;;;;;;10.85;57.94;100347.62;4329995;33;33866;-85
2021/12/16 12:57:25;;;;;;;34.17;21.48;;;;;;;9.80;61.44;100352.78;4330008;33;33392;-85
2021/12/16 12:59:55;;;;;;;37.75;22.73;;;;;;;9.96;60.85;100341.22;4329725;33;34825;-85
2021/12/16 13:02:33;;;;;;;33.90;22.15;;;;;;;9.99;60.47;100350.00;4329858;33;33183;-85
2021/12/16 13:05:12;;;;;;;34.97;23.20;;;;;;;9.93;61.22;100354.09;4330870;33;33868;-85
2021/12/16 13:07:44;;;;;;;33.47;22.67;;;;;;;9.46;62.30;100350.72;4331752;33;33898;-85
2021/12/16 13:10:22;;;;;;;31.17;21.48;;;;;;;9.69;61.24;100359.28;4331767;33;34188;-85
2021/12/16 13:15:27;;;;;;;39.85;24.70;;;;;;;9.32;62.88;100360.59;4331790;33;34065;-85
2021/12/16 13:26:39;;;;;;;37.55;24.42;;;;;;;10.14;60.62;100362.59;4318638;33;34114;-84
2021/12/16 13:29:15;;;;;;;36.30;23.15;;;;;;;9.82;61.47;100360.62;4325171;33;33344;-83
2021/12/16 13:32:06;;;;;;;34.63;22.87;;;;;;;9.64;61.60;100361.72;4321747;33;33835;-83
2021/12/16 13:34:36;;;;;;;36.15;24.20;;;;;;;9.76;61.82;100371.63;4321870;33;34166;-84
2021/12/16 13:37:20;;;;;;;39.75;24.55;;;;;;;9.81;61.74;100374.38;4331010;33;34808;-84
2021/12/16 13:39:51;;;;;;;38.83;24.08;;;;;;;9.51;62.45;100372.50;4330764;33;34453;-84
2021/12/16 13:42:20;;;;;;;35.75;22.60;;;;;;;10.16;60.81;100378.22;4330819;33;34108;-83
2021/12/16 13:45:03;;;;;;;34.90;23.27;;;;;;;9.77;61.73;100382.87;4330713;33;33834;-84
2021/12/16 14:02:03;;;;;;;29.98;20.40;;;;;;;9.33;62.64;100395.97;4320323;33;33419;-84
2021/12/16 14:10:22;;;;;;;29.58;19.98;;;;;;;11.12;56.77;100377.81;4331165;33;34135;-84
2021/12/16 14:42:12;;;;;;;31.20;19.42;;;;;;;11.02;57.47;100387.03;4317991;33;34161;-85
2021/12/16 14:50:21;;;;;;;29.95;20.55;;;;;;;11.01;57.85;100393.06;4331141;33;33939;-84
2021/12/16 14:52:48;;;;;;;29.80;19.02;;;;;;;10.16;60.05;100404.13;4331207;33;35016;-85
2021/12/16 14:55:18;;;;;;;28.87;19.95;;;;;;;11.43;56.41;100401.25;4330855;33;34126;-85
2021/12/16 14:57:50;;;;;;;29.95;19.50;;;;;;;10.47;58.77;100406.06;4330990;33;33230;-85
2021/12/16 15:00:29;;;;;;;28.87;19.95;;;;;;;11.07;57.40;100406.25;4330920;33;34058;-84
2021/12/16 15:03:04;;;;;;;29.35;19.33;;;;;;;11.20;57.17;100392.78;4330986;33;33918;-84
2021/12/16 15:05:40;;;;;;;29.67;18.67;;;;;;;11.42;56.27;100399.50;4330886;33;34296;-85
2021/12/16 15:08:22;;;;;;;25.70;17.37;;;;;;;10.33;59.53;100409.91;4330831;33;33847;-86
2021/12/16 15:10:51;;;;;;;28.55;17.98;;;;;;;11.79;55.33;100397.06;4330993;33;34891;-86